Time;durP1;ratioP1;P1;durP2;ratioP2;P2;SDS_P1;SDS_P2;PMS_P1;PMS_P2;Temp;Humidity;BMP_temperature;BMP_pressure;BME280_temperature;BME280_humidity;BME280_pressure;Samples;Min_cycle;Max_cycle;Signal;HPM_P1;HPM_P2
2022/10/12 00:00:29;;;;;;;;;5.00;5.00;;;;;;;;5080775;27;45390;-78
2022/10/12 00:02:54;;;;;;;;;9.67;7.67;;;;;;;;5060572;27;45343;-76
2022/10/12 00:05:19;;;;;;;;;9.33;9.33;;;;;;;;5068981;28;46614;-77
2022/10/12 00:07:45;;;;;;;;;12.00;8.67;;;;;;;;5088369;27;45477;-78
2022/10/12 00:10:10;;;;;;;;;16.00;12.00;;;;;;;;5062882;28;45339;-81
2022/10/12 00:12:36;;;;;;;;;16.00;12.33;;;;;;;;5087885;27;45903;-77
2022/10/12 00:15:01;;;;;;;;;20.67;14.67;;;;;;;;5082579;27;45379;-79
2022/10/12 00:17:26;;;;;;;;;17.67;14.67;;;;;;;;5069345;27;45693;-78
2022/10/12 00:19:52;;;;;;;;;18.00;15.00;;;;;;;;5080126;27;45704;-80
2022/10/12 00:22:17;;;;;;;;;19.00;15.67;;;;;;;;5060326;28;45905;-79
2022/10/12 00:24:42;;;;;;;;;17.67;13.67;;;;;;;;5081165;28;45550;-81
2022/10/12 00:27:08;;;;;;;;;15.67;14.00;;;;;;;;5081924;27;45579;-78
2022/10/12 00:29:33;;;;;;;;;16.33;13.00;;;;;;;;5077815;27;45444;-78
2022/10/12 00:31:58;;;;;;;;;10.00;10.00;;;;;;;;5081439;28;45858;-76
2022/10/12 00:34:23;;;;;;;;;15.67;13.33;;;;;;;;5084351;27;45458;-77
2022/10/12 00:36:49;;;;;;;;;18.00;17.00;;;;;;;;5071116;27;46969;-77
2022/10/12 00:39:14;;;;;;;;;20.33;17.33;;;;;;;;5078396;27;45588;-77
2022/10/12 00:41:41;;;;;;;;;18.67;17.33;;;;;;;;5090472;27;45305;-78
2022/10/12 00:44:25;;;;;;;;;18.00;16.00;;;;;;;;5072139;27;45591;-77
2022/10/12 00:46:52;;;;;;;;;22.33;18.33;;;;;;;;5082558;27;45422;-76
2022/10/12 00:49:20;;;;;;;;;17.67;16.67;;;;;;;;5080564;27;45204;-78
2022/10/12 00:51:50;;;;;;;;;13.00;11.33;;;;;;;;5072748;28;44722;-76
2022/10/12 00:54:21;;;;;;;;;20.33;18.67;;;;;;;;5074376;27;44780;-74
2022/10/12 00:56:47;;;;;;;;;17.00;14.67;;;;;;;;5040587;28;45524;-76
2022/10/12 00:59:21;;;;;;;;;19.67;17.67;;;;;;;;5074651;28;45483;-76
2022/10/12 01:01:47;;;;;;;;;25.00;20.33;;;;;;;;5061959;28;45524;-77
2022/10/12 01:04:12;;;;;;;;;18.00;14.67;;;;;;;;5075199;28;45433;-75
2022/10/12 01:06:38;;;;;;;;;19.33;17.67;;;;;;;;5078799;28;46313;-76
2022/10/12 01:09:03;;;;;;;;;22.33;19.33;;;;;;;;5083483;27;45364;-77
2022/10/12 01:11:29;;;;;;;;;16.67;15.00;;;;;;;;5073304;27;45181;-77
2022/10/12 01:13:54;;;;;;;;;22.00;17.33;;;;;;;;5051718;27;45386;-76
2022/10/12 01:16:35;;;;;;;;;18.33;15.00;;;;;;;;5082436;27;45925;-75
2022/10/12 01:19:03;;;;;;;;;17.67;17.67;;;;;;;;5068403;27;45410;-73
2022/10/12 01:21:30;;;;;;;;;17.33;16.33;;;;;;;;5081718;27;45405;-76
2022/10/12 01:24:04;;;;;;;;;24.67;20.00;;;;;;;;5079074;27;45469;-76
2022/10/12 01:26:29;;;;;;;;;15.67;15.33;;;;;;;;5095252;27;45553;-75
2022/10/12 01:28:55;;;;;;;;;23.33;18.00;;;;;;;;5099290;27;45788;-75
2022/10/12 01:31:39;;;;;;;;;19.33;18.00;;;;;;;;5096018;27;45834;-74
2022/10/12 01:34:22;;;;;;;;;23.33;18.00;;;;;;;;5091409;27;45422;-75
2022/10/12 01:36:51;;;;;;;;;20.00;16.33;;;;;;;;5067365;27;45605;-75
2022/10/12 01:39:19;;;;;;;;;15.00;12.00;;;;;;;;5073134;28;45458;-75
2022/10/12 01:41:54;;;;;;;;;13.33;13.00;;;;;;;;5067685;28;45360;-72
2022/10/12 01:44:24;;;;;;;;;17.00;16.00;;;;;;;;5076635;28;45900;-75
2022/10/12 01:46:52;;;;;;;;;17.00;15.33;;;;;;;;5073135;27;45466;-74
2022/10/12 01:49:20;;;;;;;;;21.00;15.00;;;;;;;;5054562;28;45239;-74
2022/10/12 01:51:51;;;;;;;;;19.00;16.67;;;;;;;;5081057;28;45709;-75
2022/10/12 01:54:26;;;;;;;;;17.67;15.67;;;;;;;;5064196;28;45812;-75
2022/10/12 01:56:56;;;;;;;;;17.33;15.33;;;;;;;;5068040;27;45428;-76
2022/10/12 01:59:27;;;;;;;;;15.67;12.67;;;;;;;;5080359;28;45383;-75
2022/10/12 02:02:11;;;;;;;;;18.67;16.67;;;;;;;;5067254;27;45435;-75
2022/10/12 02:04:43;;;;;;;;;18.67;17.00;;;;;;;;5076399;27;45409;-75
2022/10/12 02:07:29;;;;;;;;;16.33;14.00;;;;;;;;5088488;27;45459;-74
2022/10/12 02:09:57;;;;;;;;;15.33;14.00;;;;;;;;5085442;27;45495;-75
2022/10/12 02:12:23;;;;;;;;;16.00;16.00;;;;;;;;5051221;28;45308;-75
2022/10/12 02:14:54;;;;;;;;;16.00;15.33;;;;;;;;5092421;27;45303;-77
2022/10/12 02:17:21;;;;;;;;;19.00;17.67;;;;;;;;5081018;27;46117;-75
2022/10/12 02:19:53;;;;;;;;;19.00;15.00;;;;;;;;5066095;28;45997;-74
2022/10/12 02:22:19;;;;;;;;;19.00;16.00;;;;;;;;5079888;27;45425;-75
2022/10/12 02:24:47;;;;;;;;;22.00;17.33;;;;;;;;5087947;27;45718;-76
2022/10/12 02:27:13;;;;;;;;;15.67;15.00;;;;;;;;5081526;27;45436;-76
2022/10/12 02:29:40;;;;;;;;;19.33;16.33;;;;;;;;5099370;27;45662;-76
2022/10/12 02:32:21;;;;;;;;;20.67;15.00;;;;;;;;5101255;27;45498;-76
2022/10/12 02:34:54;;;;;;;;;16.00;16.00;;;;;;;;5085453;27;45351;-76
2022/10/12 02:37:31;;;;;;;;;16.33;15.33;;;;;;;;5086421;27;45804;-76
2022/10/12 02:40:10;;;;;;;;;18.33;16.67;;;;;;;;5070828;28;45941;-75
2022/10/12 02:42:38;;;;;;;;;17.67;13.00;;;;;;;;5087581;27;45381;-77
2022/10/12 02:45:06;;;;;;;;;18.33;14.67;;;;;;;;5065396;28;46948;-76
2022/10/12 02:47:33;;;;;;;;;14.00;14.00;;;;;;;;5068640;27;46132;-76
2022/10/12 02:50:00;;;;;;;;;14.67;13.00;;;;;;;;5091944;27;45909;-78
2022/10/12 02:52:25;;;;;;;;;17.67;15.00;;;;;;;;5088340;27;45651;-76
2022/10/12 02:54:51;;;;;;;;;17.67;16.67;;;;;;;;5101868;27;45398;-77
2022/10/12 02:57:16;;;;;;;;;15.33;12.00;;;;;;;;5078986;27;45713;-77
2022/10/12 02:59:41;;;;;;;;;16.33;16.33;;;;;;;;5083498;28;45820;-78
2022/10/12 03:02:08;;;;;;;;;16.00;14.00;;;;;;;;5093680;27;44937;-77
2022/10/12 03:04:34;;;;;;;;;11.00;8.00;;;;;;;;5080248;28;45402;-79
2022/10/12 03:06:59;;;;;;;;;12.00;11.00;;;;;;;;5083487;27;45938;-77
2022/10/12 03:09:25;;;;;;;;;16.00;16.00;;;;;;;;5090664;27;45815;-77
2022/10/12 03:11:50;;;;;;;;;15.67;13.67;;;;;;;;5096104;27;45528;-75
2022/10/12 03:14:16;;;;;;;;;13.33;12.00;;;;;;;;5101753;27;45897;-77
2022/10/12 03:16:42;;;;;;;;;17.00;13.00;;;;;;;;5095841;27;45568;-76
2022/10/12 03:19:07;;;;;;;;;10.67;10.67;;;;;;;;5090354;27;45415;-77
2022/10/12 03:21:33;;;;;;;;;14.00;10.67;;;;;;;;5074492;28;45375;-78
2022/10/12 03:23:58;;;;;;;;;18.00;13.67;;;;;;;;5091860;27;45363;-76
2022/10/12 03:26:24;;;;;;;;;13.67;13.67;;;;;;;;5085713;27;45406;-77
2022/10/12 03:28:49;;;;;;;;;16.33;15.00;;;;;;;;5095167;27;45343;-76
2022/10/12 03:31:15;;;;;;;;;17.67;15.33;;;;;;;;5092102;27;45332;-77
2022/10/12 03:33:40;;;;;;;;;14.33;14.00;;;;;;;;5091871;27;45450;-79
2022/10/12 03:36:05;;;;;;;;;12.33;11.67;;;;;;;;5104970;27;46634;-77
2022/10/12 03:38:31;;;;;;;;;14.67;12.67;;;;;;;;5092258;27;45754;-77
2022/10/12 03:40:56;;;;;;;;;13.33;13.33;;;;;;;;5085696;27;45418;-76
2022/10/12 03:43:21;;;;;;;;;13.67;13.67;;;;;;;;5092854;27;45525;-77
2022/10/12 03:45:47;;;;;;;;;15.00;12.67;;;;;;;;5085052;27;45607;-78
2022/10/12 03:48:12;;;;;;;;;12.67;11.67;;;;;;;;5076618;28;45351;-78
2022/10/12 03:50:37;;;;;;;;;14.67;12.67;;;;;;;;5081884;27;45693;-79
2022/10/12 03:53:03;;;;;;;;;16.33;13.33;;;;;;;;5074578;28;45634;-77
2022/10/12 03:55:29;;;;;;;;;13.67;13.67;;;;;;;;5076893;28;46230;-77
2022/10/12 03:57:54;;;;;;;;;16.67;13.67;;;;;;;;5082329;27;45511;-79
2022/10/12 04:00:20;;;;;;;;;15.33;14.33;;;;;;;;5069872;27;45811;-77
2022/10/12 04:02:45;;;;;;;;;16.33;12.67;;;;;;;;5060696;28;45670;-77
2022/10/12 04:05:10;;;;;;;;;19.67;13.67;;;;;;;;5069491;28;45454;-78
2022/10/12 04:07:36;;;;;;;;;15.33;15.33;;;;;;;;5079493;28;45624;-78
2022/10/12 04:10:01;;;;;;;;;16.67;14.33;;;;;;;;5093352;27;45926;-77
2022/10/12 04:12:27;;;;;;;;;23.33;20.00;;;;;;;;5095228;27;45844;-79
2022/10/12 04:14:52;;;;;;;;;18.33;15.67;;;;;;;;5079789;27;45558;-76
2022/10/12 04:17:17;;;;;;;;;17.33;17.33;;;;;;;;5082432;27;45759;-78
2022/10/12 04:19:43;;;;;;;;;8.67;3.00;;;;;;;;5082934;28;45366;-75
2022/10/12 04:22:08;;;;;;;;;20.33;19.33;;;;;;;;5082836;27;45450;-78
2022/10/12 04:24:34;;;;;;;;;20.00;17.00;;;;;;;;5092460;27;45514;-75
2022/10/12 04:26:59;;;;;;;;;16.33;15.33;;;;;;;;5062934;28;45629;-74
2022/10/12 04:29:24;;;;;;;;;18.33;16.33;;;;;;;;5085284;27;45969;-76
2022/10/12 04:31:49;;;;;;;;;20.67;18.00;;;;;;;;5080097;28;45802;-76
2022/10/12 04:34:16;;;;;;;;;23.00;19.33;;;;;;;;5067532;28;45278;-76
2022/10/12 04:36:42;;;;;;;;;22.00;15.33;;;;;;;;5081536;28;45429;-76
2022/10/12 04:39:07;;;;;;;;;36.33;30.67;;;;;;;;5086975;27;45419;-76
2022/10/12 04:41:33;;;;;;;;;30.33;22.00;;;;;;;;5073082;28;45405;-76
2022/10/12 04:43:58;;;;;;;;;25.33;23.00;;;;;;;;5081770;28;46436;-75
2022/10/12 04:46:23;;;;;;;;;30.00;25.00;;;;;;;;5072131;28;45513;-81
2022/10/12 04:48:49;;;;;;;;;28.67;23.33;;;;;;;;5088472;27;44792;-78
2022/10/12 04:51:16;;;;;;;;;31.33;27.00;;;;;;;;5080697;27;45591;-79
2022/10/12 04:53:42;;;;;;;;;28.67;26.00;;;;;;;;5068037;28;45438;-79
2022/10/12 04:56:08;;;;;;;;;33.33;30.33;;;;;;;;5091251;27;44842;-78
2022/10/12 04:58:33;;;;;;;;;31.00;24.67;;;;;;;;5064246;28;45376;-80
2022/10/12 05:00:59;;;;;;;;;23.00;20.33;;;;;;;;5085233;27;45313;-78
2022/10/12 05:03:24;;;;;;;;;31.33;23.67;;;;;;;;5065651;27;46577;-79
2022/10/12 05:05:49;;;;;;;;;29.67;22.00;;;;;;;;5085269;27;45404;-79
2022/10/12 05:08:15;;;;;;;;;26.00;23.67;;;;;;;;5085008;27;45399;-78
2022/10/12 05:10:40;;;;;;;;;22.33;19.67;;;;;;;;5079683;28;44911;-79
2022/10/12 05:13:06;;;;;;;;;21.67;18.67;;;;;;;;5062557;28;45480;-78
2022/10/12 05:15:32;;;;;;;;;21.33;19.00;;;;;;;;5095486;27;45683;-77
2022/10/12 05:17:59;;;;;;;;;17.33;17.33;;;;;;;;5085526;27;44744;-77
2022/10/12 05:20:24;;;;;;;;;22.33;16.67;;;;;;;;5079252;27;45899;-78
2022/10/12 05:23:12;;;;;;;;;22.00;21.00;;;;;;;;5090917;28;46419;-84
2022/10/12 05:25:41;;;;;;;;;19.33;17.67;;;;;;;;5083024;28;44869;-80
2022/10/12 05:28:09;;;;;;;;;20.33;15.33;;;;;;;;5080966;28;44887;-80
2022/10/12 05:30:36;;;;;;;;;16.00;12.67;;;;;;;;5071632;28;45384;-79
2022/10/12 05:33:08;;;;;;;;;17.67;16.00;;;;;;;;5098344;27;45458;-81
2022/10/12 05:35:35;;;;;;;;;19.33;16.00;;;;;;;;5092050;28;45419;-80
2022/10/12 05:38:03;;;;;;;;;21.67;14.67;;;;;;;;5087639;28;44840;-79
2022/10/12 05:40:28;;;;;;;;;23.33;22.00;;;;;;;;5071489;28;45430;-81
2022/10/12 05:42:54;;;;;;;;;19.00;17.67;;;;;;;;5090194;27;45710;-77
2022/10/12 05:45:19;;;;;;;;;19.67;16.33;;;;;;;;5064581;28;45329;-76
2022/10/12 05:47:44;;;;;;;;;14.33;14.33;;;;;;;;5065188;28;45899;-74
2022/10/12 05:50:16;;;;;;;;;20.67;17.33;;;;;;;;5093792;28;45415;-79
2022/10/12 05:52:43;;;;;;;;;22.67;19.33;;;;;;;;5093568;27;45171;-81
2022/10/12 05:55:08;;;;;;;;;15.33;14.33;;;;;;;;5099140;28;44681;-83
2022/10/12 05:57:33;;;;;;;;;22.33;18.33;;;;;;;;5089244;28;46085;-83
2022/10/12 06:00:00;;;;;;;;;23.00;20.00;;;;;;;;5087632;28;45079;-80
2022/10/12 06:02:27;;;;;;;;;19.33;18.00;;;;;;;;5090100;28;45374;-81
2022/10/12 06:04:53;;;;;;;;;14.33;10.00;;;;;;;;5089922;28;45300;-84
2022/10/12 06:07:18;;;;;;;;;18.67;13.00;;;;;;;;5076260;28;45454;-83
2022/10/12 06:09:47;;;;;;;;;18.33;15.67;;;;;;;;5090526;28;45837;-86
2022/10/12 06:12:15;;;;;;;;;21.00;17.00;;;;;;;;5098973;27;45187;-83
2022/10/12 06:14:41;;;;;;;;;23.00;21.00;;;;;;;;5093082;28;44800;-85
2022/10/12 06:17:08;;;;;;;;;17.00;13.67;;;;;;;;5081786;28;45416;-84
2022/10/12 06:19:34;;;;;;;;;21.67;19.33;;;;;;;;5112098;27;46226;-87
2022/10/12 06:21:59;;;;;;;;;14.33;13.67;;;;;;;;5080647;28;47600;-86
2022/10/12 06:24:25;;;;;;;;;25.67;20.33;;;;;;;;5076249;28;45541;-78
2022/10/12 06:26:50;;;;;;;;;21.67;19.00;;;;;;;;5065629;28;45043;-84
2022/10/12 06:29:16;;;;;;;;;23.00;17.67;;;;;;;;5078007;28;46132;-84
2022/10/12 06:31:41;;;;;;;;;15.33;15.33;;;;;;;;5088441;28;45357;-84
2022/10/12 06:34:07;;;;;;;;;19.67;15.00;;;;;;;;5084623;28;44811;-84
2022/10/12 06:36:32;;;;;;;;;20.00;14.67;;;;;;;;5072451;28;44842;-83
2022/10/12 06:38:58;;;;;;;;;23.33;20.00;;;;;;;;5077552;28;45439;-79
2022/10/12 06:41:23;;;;;;;;;21.33;18.67;;;;;;;;5092192;27;45578;-83
2022/10/12 06:43:48;;;;;;;;;19.00;16.33;;;;;;;;5091341;28;45872;-81
2022/10/12 06:46:15;;;;;;;;;23.00;18.33;;;;;;;;5089546;27;45259;-80
2022/10/12 06:48:40;;;;;;;;;24.00;17.67;;;;;;;;5079645;28;45392;-74
2022/10/12 06:51:06;;;;;;;;;25.33;18.00;;;;;;;;5073301;28;46617;-83
2022/10/12 06:53:33;;;;;;;;;26.67;22.67;;;;;;;;5088517;28;45854;-81
2022/10/12 06:55:59;;;;;;;;;29.67;23.00;;;;;;;;5065242;28;45432;-81
2022/10/12 06:58:25;;;;;;;;;31.67;26.00;;;;;;;;5090389;28;46019;-81
2022/10/12 07:00:51;;;;;;;;;19.67;19.67;;;;;;;;5075012;28;46724;-81
2022/10/12 07:03:16;;;;;;;;;23.67;18.33;;;;;;;;5085870;27;45484;-80
2022/10/12 07:05:42;;;;;;;;;20.00;18.00;;;;;;;;5076600;27;44818;-82
2022/10/12 07:08:10;;;;;;;;;19.00;14.33;;;;;;;;5070802;28;45666;-80
2022/10/12 07:10:35;;;;;;;;;21.67;18.67;;;;;;;;5091670;27;45302;-80
2022/10/12 07:13:00;;;;;;;;;18.00;15.67;;;;;;;;5086164;28;45370;-81
2022/10/12 07:15:26;;;;;;;;;24.00;18.33;;;;;;;;5073242;28;44768;-79
2022/10/12 07:17:51;;;;;;;;;25.00;22.00;;;;;;;;5072724;28;45505;-81
2022/10/12 07:20:19;;;;;;;;;21.33;17.00;;;;;;;;5076076;27;47084;-79
2022/10/12 07:22:45;;;;;;;;;26.67;20.67;;;;;;;;5079832;27;44878;-77
2022/10/12 07:25:10;;;;;;;;;25.33;22.00;;;;;;;;5064846;28;45521;-78
2022/10/12 07:27:35;;;;;;;;;30.67;26.67;;;;;;;;5086976;27;45731;-80
2022/10/12 07:30:01;;;;;;;;;32.67;26.67;;;;;;;;5085879;27;45486;-79
2022/10/12 07:32:27;;;;;;;;;25.33;24.67;;;;;;;;5066860;28;45428;-80
2022/10/12 07:34:53;;;;;;;;;31.00;24.33;;;;;;;;5078082;28;45466;-82
2022/10/12 07:37:19;;;;;;;;;28.67;23.00;;;;;;;;5095820;28;44677;-81
2022/10/12 07:39:45;;;;;;;;;27.67;25.00;;;;;;;;5073251;28;45322;-82
2022/10/12 07:42:11;;;;;;;;;26.67;23.33;;;;;;;;5094839;28;44796;-84
2022/10/12 07:44:36;;;;;;;;;23.00;22.67;;;;;;;;5095583;28;45424;-82
2022/10/12 07:47:02;;;;;;;;;28.67;24.67;;;;;;;;5069202;28;44970;-83
2022/10/12 07:49:27;;;;;;;;;33.00;28.67;;;;;;;;5093597;28;44945;-82
2022/10/12 07:51:53;;;;;;;;;22.67;21.67;;;;;;;;5075044;28;46051;-83
2022/10/12 07:54:18;;;;;;;;;29.33;28.33;;;;;;;;5091891;27;45563;-83
2022/10/12 07:56:45;;;;;;;;;27.00;26.67;;;;;;;;5091871;28;45416;-81
2022/10/12 07:59:11;;;;;;;;;38.33;27.00;;;;;;;;5091618;28;45532;-82
2022/10/12 08:01:36;;;;;;;;;27.00;22.67;;;;;;;;5090958;28;45511;-82
2022/10/12 08:04:02;;;;;;;;;30.33;24.00;;;;;;;;5081585;27;45442;-83
2022/10/12 08:06:29;;;;;;;;;23.33;23.33;;;;;;;;5091775;28;45552;-83
2022/10/12 08:08:56;;;;;;;;;34.33;28.33;;;;;;;;5101139;27;45377;-82
2022/10/12 08:11:23;;;;;;;;;29.33;26.67;;;;;;;;5094472;27;45331;-82
2022/10/12 08:13:55;;;;;;;;;32.33;27.67;;;;;;;;5095473;28;45469;-83
2022/10/12 08:16:34;;;;;;;;;23.00;23.00;;;;;;;;5085531;28;44714;-82
2022/10/12 08:19:01;;;;;;;;;29.67;27.00;;;;;;;;5073298;28;45338;-82
2022/10/12 08:21:29;;;;;;;;;25.00;23.67;;;;;;;;5094020;27;44827;-84
2022/10/12 08:23:55;;;;;;;;;29.33;27.33;;;;;;;;5108404;27;45443;-84
2022/10/12 08:26:20;;;;;;;;;32.00;27.00;;;;;;;;5095701;28;44749;-84
2022/10/12 08:28:46;;;;;;;;;31.33;25.00;;;;;;;;5096128;28;45128;-83
2022/10/12 08:31:12;;;;;;;;;33.00;28.00;;;;;;;;5089011;28;45303;-80
2022/10/12 08:33:38;;;;;;;;;32.33;29.00;;;;;;;;5062378;28;45408;-82
2022/10/12 08:36:04;;;;;;;;;35.67;30.67;;;;;;;;5071358;28;45576;-81
2022/10/12 08:38:39;;;;;;;;;35.00;28.00;;;;;;;;5087822;27;45622;-78
2022/10/12 08:41:26;;;;;;;;;27.00;27.00;;;;;;;;5088257;28;44815;-78
2022/10/12 08:44:27;;;;;;;;;36.00;29.33;;;;;;;;5090552;27;45419;-79
2022/10/12 08:47:01;;;;;;;;;36.00;30.00;;;;;;;;4992127;28;45899;-80
2022/10/12 08:49:33;;;;;;;;;33.33;26.67;;;;;;;;5074610;27;46362;-80
2022/10/12 08:52:05;;;;;;;;;28.00;25.33;;;;;;;;5087633;28;44863;-79
2022/10/12 08:54:39;;;;;;;;;26.33;25.33;;;;;;;;5088356;27;45429;-80
2022/10/12 08:57:07;;;;;;;;;29.67;26.33;;;;;;;;5081382;27;45540;-79
2022/10/12 08:59:36;;;;;;;;;29.33;24.33;;;;;;;;5080736;27;45543;-77
2022/10/12 09:02:20;;;;;;;;;26.33;24.33;;;;;;;;5063273;28;45423;-83
2022/10/12 09:05:19;;;;;;;;;26.00;22.33;;;;;;;;5081797;27;45375;-80
2022/10/12 09:07:56;;;;;;;;;28.33;25.67;;;;;;;;5053927;28;44864;-78
2022/10/12 09:10:40;;;;;;;;;33.33;24.33;;;;;;;;5083798;28;45429;-79
2022/10/12 09:13:10;;;;;;;;;24.00;20.00;;;;;;;;5086773;27;44858;-80
2022/10/12 09:15:52;;;;;;;;;26.33;21.00;;;;;;;;5069133;28;45585;-81
2022/10/12 09:18:28;;;;;;;;;22.67;22.00;;;;;;;;5081114;28;44868;-79
2022/10/12 09:21:06;;;;;;;;;20.00;20.00;;;;;;;;5076070;28;45966;-79
2022/10/12 09:23:41;;;;;;;;;23.00;18.00;;;;;;;;5088338;28;44842;-80
2022/10/12 09:26:12;;;;;;;;;26.00;22.00;;;;;;;;5087799;28;45754;-78
2022/10/12 09:28:44;;;;;;;;;23.33;19.67;;;;;;;;5082058;28;45538;-79
2022/10/12 09:31:09;;;;;;;;;19.33;18.67;;;;;;;;5073108;27;45524;-76
2022/10/12 09:33:46;;;;;;;;;26.67;19.67;;;;;;;;5079422;28;45624;-77
2022/10/12 09:36:16;;;;;;;;;21.50;20.50;;;;;;;;5051567;28;45675;-78
2022/10/12 09:38:41;;;;;;;;;24.33;20.33;;;;;;;;5070903;28;45369;-79
2022/10/12 09:41:15;;;;;;;;;25.33;18.00;;;;;;;;5087646;27;45444;-77
2022/10/12 09:43:40;;;;;;;;;21.33;17.67;;;;;;;;5090196;27;45713;-82
2022/10/12 09:46:10;;;;;;;;;19.50;17.75;;;;;;;;5073184;27;44834;-76
2022/10/12 09:48:36;;;;;;;;;20.00;19.33;;;;;;;;5071966;27;45521;-79
2022/10/12 09:51:05;;;;;;;;;21.33;20.33;;;;;;;;5072873;28;45845;-86
2022/10/12 09:53:31;;;;;;;;;19.67;17.67;;;;;;;;5070297;28;45507;-81
2022/10/12 09:56:01;;;;;;;;;25.33;19.67;;;;;;;;5077630;28;45533;-78
2022/10/12 09:58:27;;;;;;;;;21.67;18.00;;;;;;;;5079041;28;45557;-81
2022/10/12 10:01:12;;;;;;;;;16.00;14.00;;;;;;;;5098578;27;45738;-76
2022/10/12 10:03:37;;;;;;;;;21.67;20.67;;;;;;;;5063582;27;45399;-77
2022/10/12 10:06:03;;;;;;;;;24.00;20.33;;;;;;;;5084063;27;45556;-78
2022/10/12 10:08:37;;;;;;;;;19.33;18.33;;;;;;;;5074588;28;45575;-76
2022/10/12 10:11:03;;;;;;;;;17.67;16.33;;;;;;;;5063605;28;46028;-77
2022/10/12 10:13:29;;;;;;;;;20.33;18.67;;;;;;;;5084323;27;45468;-78
2022/10/12 10:16:05;;;;;;;;;18.00;15.67;;;;;;;;5079197;27;45624;-77
2022/10/12 10:18:35;;;;;;;;;20.25;16.00;;;;;;;;5065088;27;45380;-76
2022/10/12 10:21:02;;;;;;;;;18.67;15.67;;;;;;;;5066105;28;47307;-77
2022/10/12 10:23:33;;;;;;;;;17.67;16.33;;;;;;;;5081371;28;45535;-78
2022/10/12 10:26:07;;;;;;;;;21.67;17.33;;;;;;;;5060217;28;45367;-77
2022/10/12 10:28:33;;;;;;;;;19.00;17.33;;;;;;;;5064684;28;45938;-78
2022/10/12 10:31:03;;;;;;;;;17.67;14.33;;;;;;;;5086326;27;45788;-77
2022/10/12 10:33:30;;;;;;;;;18.50;13.25;;;;;;;;5070898;28;45788;-79
2022/10/12 10:36:14;;;;;;;;;20.33;19.33;;;;;;;;5076217;28;45548;-77
2022/10/12 10:38:58;;;;;;;;;18.33;16.33;;;;;;;;5073183;27;45549;-78
2022/10/12 10:41:29;;;;;;;;;22.67;17.33;;;;;;;;5088885;27;45797;-76
2022/10/12 10:43:54;;;;;;;;;17.00;17.00;;;;;;;;5080757;27;45068;-79
2022/10/12 10:46:26;;;;;;;;;18.00;15.00;;;;;;;;5086520;28;45484;-78
2022/10/12 10:49:00;;;;;;;;;18.75;15.00;;;;;;;;5084251;27;45292;-79
2022/10/12 10:51:43;;;;;;;;;20.50;16.75;;;;;;;;5076075;27;45485;-78
2022/10/12 10:54:22;;;;;;;;;16.67;16.67;;;;;;;;5063529;27;45502;-80
2022/10/12 10:57:20;;;;;;;;;19.33;18.00;;;;;;;;5065231;28;45341;-78
2022/10/12 11:00:01;;;;;;;;;15.67;15.67;;;;;;;;5086239;27;45431;-79
2022/10/12 11:02:44;;;;;;;;;20.00;15.67;;;;;;;;5064898;28;47083;-78
2022/10/12 11:05:16;;;;;;;;;17.67;14.00;;;;;;;;5083250;27;45831;-77
2022/10/12 11:08:02;;;;;;;;;17.67;16.00;;;;;;;;5079415;28;45442;-80
2022/10/12 11:10:30;;;;;;;;;16.67;15.67;;;;;;;;5069550;28;46275;-80
2022/10/12 11:12:58;;;;;;;;;16.67;16.67;;;;;;;;5084529;28;46486;-78
2022/10/12 11:15:26;;;;;;;;;16.67;15.00;;;;;;;;5085445;28;45664;-79
2022/10/12 11:18:02;;;;;;;;;22.67;17.00;;;;;;;;5091413;27;44840;-78
2022/10/12 11:20:42;;;;;;;;;13.25;11.25;;;;;;;;5065456;28;46496;-78
2022/10/12 11:23:18;;;;;;;;;15.33;13.00;;;;;;;;5083872;28;45453;-80
2022/10/12 11:25:48;;;;;;;;;18.67;15.33;;;;;;;;5065246;28;45398;-77
2022/10/12 11:28:15;;;;;;;;;15.00;11.67;;;;;;;;5078685;28;45812;-79
2022/10/12 11:30:43;;;;;;;;;14.33;12.00;;;;;;;;5072123;28;45228;-78
2022/10/12 11:33:14;;;;;;;;;14.50;13.25;;;;;;;;5087085;27;45072;-78
2022/10/12 11:35:41;;;;;;;;;16.00;14.33;;;;;;;;5072420;28;45454;-76
2022/10/12 11:38:13;;;;;;;;;10.50;9.75;;;;;;;;5083091;28;45319;-79
2022/10/12 11:40:41;;;;;;;;;18.50;10.75;;;;;;;;5088230;27;45179;-79
2022/10/12 11:43:09;;;;;;;;;15.00;14.00;;;;;;;;5075797;28;45213;-77
2022/10/12 11:45:42;;;;;;;;;10.50;10.50;;;;;;;;5081089;27;45086;-79
2022/10/12 11:48:12;;;;;;;;;14.00;14.00;;;;;;;;5092424;27;45422;-77
2022/10/12 11:50:40;;;;;;;;;13.00;12.25;;;;;;;;5086889;27;45488;-79
2022/10/12 11:53:07;;;;;;;;;13.33;13.00;;;;;;;;5071465;28;46350;-78
2022/10/12 11:55:35;;;;;;;;;14.67;13.00;;;;;;;;5077487;28;45883;-77
2022/10/12 11:58:06;;;;;;;;;9.33;8.00;;;;;;;;5080070;28;45410;-78
2022/10/12 12:00:40;;;;;;;;;8.25;7.25;;;;;;;;5081816;28;45469;-78
2022/10/12 12:03:06;;;;;;;;;12.00;10.50;;;;;;;;5080597;28;46254;-77
2022/10/12 12:05:34;;;;;;;;;13.00;8.75;;;;;;;;5068394;28;45340;-77
2022/10/12 12:08:00;;;;;;;;;6.33;5.67;;;;;;;;5071650;28;45328;-80
2022/10/12 12:10:26;;;;;;;;;12.00;9.50;;;;;;;;5088853;28;45415;-79
2022/10/12 12:13:11;;;;;;;;;12.25;10.75;;;;;;;;5083930;28;46984;-79
2022/10/12 12:15:46;;;;;;;;;14.25;10.50;;;;;;;;5091632;28;45390;-80
2022/10/12 12:18:16;;;;;;;;;8.75;8.75;;;;;;;;5090943;27;45486;-79
2022/10/12 12:20:41;;;;;;;;;11.50;7.50;;;;;;;;5097415;27;45289;-80
2022/10/12 12:23:18;;;;;;;;;10.75;9.75;;;;;;;;5074066;28;46886;-80
2022/10/12 12:25:43;;;;;;;;;12.50;9.50;;;;;;;;5091078;28;44881;-78
2022/10/12 12:28:20;;;;;;;;;12.00;9.25;;;;;;;;5092082;27;45690;-79
2022/10/12 12:31:06;;;;;;;;;14.50;12.50;;;;;;;;5073162;28;45804;-79
2022/10/12 12:33:34;;;;;;;;;12.67;11.33;;;;;;;;5072573;28;45514;-79
2022/10/12 12:36:00;;;;;;;;;9.33;8.33;;;;;;;;5092514;27;45390;-78
2022/10/12 12:38:27;;;;;;;;;10.33;10.33;;;;;;;;5073185;28;44791;-79
2022/10/12 12:40:57;;;;;;;;;9.00;9.00;;;;;;;;5090508;27;44741;-80
2022/10/12 12:43:28;;;;;;;;;12.75;11.00;;;;;;;;5094716;27;47700;-79
2022/10/12 12:45:56;;;;;;;;;13.67;10.33;;;;;;;;5078910;27;45386;-78
2022/10/12 12:48:37;;;;;;;;;8.67;8.67;;;;;;;;5082861;27;45427;-77
2022/10/12 12:51:04;;;;;;;;;12.33;11.33;;;;;;;;5084170;28;45457;-77
2022/10/12 12:53:30;;;;;;;;;11.33;9.00;;;;;;;;5066509;28;47475;-80
2022/10/12 12:55:59;;;;;;;;;13.00;10.00;;;;;;;;5078777;28;45523;-80
2022/10/12 12:58:24;;;;;;;;;15.00;10.00;;;;;;;;5071584;28;45473;-79
2022/10/12 13:01:08;;;;;;;;;12.00;11.33;;;;;;;;5087724;27;45392;-78
2022/10/12 13:03:49;;;;;;;;;11.67;8.67;;;;;;;;5069817;28;47719;-78
2022/10/12 13:06:33;;;;;;;;;10.00;10.00;;;;;;;;5081652;28;45234;-79
2022/10/12 13:09:25;;;;;;;;;14.00;12.00;;;;;;;;5068302;28;45359;-78
2022/10/12 13:12:09;;;;;;;;;11.75;9.75;;;;;;;;5052054;28;45891;-77
2022/10/12 13:14:34;;;;;;;;;9.33;7.33;;;;;;;;5081377;27;45480;-79
2022/10/12 13:17:03;;;;;;;;;7.33;7.00;;;;;;;;5088912;27;45411;-79
2022/10/12 13:19:33;;;;;;;;;7.75;6.25;;;;;;;;5091591;27;45466;-78
2022/10/12 13:22:04;;;;;;;;;11.33;10.00;;;;;;;;5085006;28;45600;-78
2022/10/12 13:24:36;;;;;;;;;11.00;9.00;;;;;;;;5086880;28;45523;-79
2022/10/12 13:27:20;;;;;;;;;6.33;6.33;;;;;;;;5085711;28;45420;-79
2022/10/12 13:29:56;;;;;;;;;12.67;9.00;;;;;;;;5079877;28;44891;-84
2022/10/12 13:32:51;;;;;;;;;9.67;8.00;;;;;;;;5083302;28;44826;-82
2022/10/12 13:35:17;;;;;;;;;6.33;5.67;;;;;;;;5076908;28;45434;-80
2022/10/12 13:38:01;;;;;;;;;12.00;9.00;;;;;;;;5103119;27;45485;-81
2022/10/12 13:40:31;;;;;;;;;8.00;6.33;;;;;;;;5091111;28;45790;-80
2022/10/12 13:43:16;;;;;;;;;10.67;8.33;;;;;;;;5097577;27;45568;-83
2022/10/12 13:45:46;;;;;;;;;10.33;9.00;;;;;;;;5093830;27;45088;-82
2022/10/12 13:48:43;;;;;;;;;7.33;7.33;;;;;;;;5109026;27;45380;-81
2022/10/12 13:51:46;;;;;;;;;;;;;;;;;;;;;
2022/10/12 13:54:27;;;;;;;;;9.67;8.67;;;;;;;;5085768;28;73098;-82
2022/10/12 13:57:04;;;;;;;;;8.67;7.00;;;;;;;;5102271;27;45333;-82
2022/10/12 13:59:41;;;;;;;;;9.00;6.67;;;;;;;;5078896;28;45566;-82
2022/10/12 14:02:41;;;;;;;;;6.00;6.00;;;;;;;;5094361;28;45173;-82
2022/10/12 14:05:24;;;;;;;;;8.00;7.00;;;;;;;;5073177;27;44828;-80
2022/10/12 14:08:01;;;;;;;;;6.00;6.00;;;;;;;;5080319;28;45379;-81
2022/10/12 14:10:56;;;;;;;;;7.67;5.67;;;;;;;;5074538;28;44887;-80
2022/10/12 14:13:50;;;;;;;;;;;;;;;;;;;;;
2022/10/12 14:16:21;;;;;;;;;9.00;7.67;;;;;;;;5080677;28;73235;-82
2022/10/12 14:18:55;;;;;;;;;8.33;7.00;;;;;;;;5105774;27;45384;-84
2022/10/12 14:21:41;;;;;;;;;6.75;6.75;;;;;;;;5086324;27;45261;-79
2022/10/12 14:24:07;;;;;;;;;6.00;5.00;;;;;;;;5087993;28;45404;-79
2022/10/12 14:26:46;;;;;;;;;8.67;6.33;;;;;;;;5062780;28;45134;-82
2022/10/12 14:29:38;;;;;;;;;6.00;6.00;;;;;;;;5077285;28;45561;-80
2022/10/12 14:32:13;;;;;;;;;5.50;4.25;;;;;;;;5070375;28;44799;-82
2022/10/12 14:35:15;;;;;;;;;7.00;7.00;;;;;;;;5070978;28;45987;-81
2022/10/12 14:38:00;;;;;;;;;7.00;6.00;;;;;;;;5076415;28;45321;-79